Time;durP1;ratioP1;P1;durP2;ratioP2;P2;SDS_P1;SDS_P2;PMS_P1;PMS_P2;Temp;Humidity;BMP_temperature;BMP_pressure;BME280_temperature;BME280_humidity;BME280_pressure;Samples;Min_cycle;Max_cycle;Signal;HPM_P1;HPM_P2
2022/02/24 00:00:35;;;;;;;7.45;3.67;;;;;;;;;;5058459;28;20036;-76
2022/02/24 00:03:01;;;;;;;9.23;3.78;;;;;;;;;;5050077;28;20071;-77
2022/02/24 00:05:27;;;;;;;10.57;3.42;;;;;;;;;;5054075;28;20525;-76
2022/02/24 00:07:54;;;;;;;12.63;4.30;;;;;;;;;;5049902;28;20032;-76
2022/02/24 00:10:20;;;;;;;12.25;2.95;;;;;;;;;;5054543;28;20486;-76
2022/02/24 00:12:46;;;;;;;10.02;2.92;;;;;;;;;;5054597;28;20805;-77
2022/02/24 00:15:13;;;;;;;8.63;2.92;;;;;;;;;;5055889;28;20089;-76
2022/02/24 00:17:39;;;;;;;12.27;3.63;;;;;;;;;;5048794;28;20029;-75
2022/02/24 00:20:06;;;;;;;5.85;2.30;;;;;;;;;;5049933;28;20021;-75
2022/02/24 00:22:32;;;;;;;7.40;2.80;;;;;;;;;;5048844;28;20033;-76
2022/02/24 00:24:59;;;;;;;7.75;3.42;;;;;;;;;;5073561;28;20045;-76
2022/02/24 00:27:25;;;;;;;9.35;3.28;;;;;;;;;;5051960;28;20028;-76
2022/02/24 00:29:51;;;;;;;13.45;3.63;;;;;;;;;;5060477;28;20430;-77
2022/02/24 00:32:17;;;;;;;7.22;2.58;;;;;;;;;;5047796;28;20036;-76
2022/02/24 00:34:43;;;;;;;9.10;2.70;;;;;;;;;;5071184;28;20024;-76
2022/02/24 00:37:14;;;;;;;8.77;3.22;;;;;;;;;;5048454;28;20111;-76
2022/02/24 00:39:40;;;;;;;10.95;2.97;;;;;;;;;;5047417;28;20078;-76
2022/02/24 00:42:07;;;;;;;7.95;2.92;;;;;;;;;;5049425;28;20052;-76
2022/02/24 00:44:33;;;;;;;5.60;2.60;;;;;;;;;;5051404;28;20078;-76
2022/02/24 00:46:59;;;;;;;10.43;3.15;;;;;;;;;;5047832;28;20132;-76
2022/02/24 00:49:25;;;;;;;9.35;2.85;;;;;;;;;;5048841;28;20097;-76
2022/02/24 00:51:51;;;;;;;7.32;2.95;;;;;;;;;;5047948;28;20029;-77
2022/02/24 00:54:17;;;;;;;5.82;2.95;;;;;;;;;;5048938;28;20021;-76
2022/02/24 00:56:44;;;;;;;12.60;3.72;;;;;;;;;;5046895;28;20021;-76
2022/02/24 00:59:10;;;;;;;6.07;2.38;;;;;;;;;;5050671;28;20017;-77
2022/02/24 01:01:36;;;;;;;11.68;2.63;;;;;;;;;;5052284;28;20024;-76
2022/02/24 01:04:02;;;;;;;9.93;2.63;;;;;;;;;;5053289;28;20033;-77
2022/02/24 01:06:29;;;;;;;5.53;2.30;;;;;;;;;;5052739;28;20029;-76
2022/02/24 01:08:56;;;;;;;7.43;2.72;;;;;;;;;;5079667;28;20092;-77
2022/02/24 01:11:22;;;;;;;7.18;2.72;;;;;;;;;;5054862;28;20047;-75
2022/02/24 01:13:48;;;;;;;10.48;2.83;;;;;;;;;;5055684;28;20031;-76
2022/02/24 01:16:14;;;;;;;5.88;2.58;;;;;;;;;;5069710;28;20043;-76
2022/02/24 01:18:40;;;;;;;8.32;2.55;;;;;;;;;;5067493;28;20029;-76
2022/02/24 01:21:06;;;;;;;6.93;2.20;;;;;;;;;;5057859;28;20106;-76
2022/02/24 01:23:33;;;;;;;6.35;2.45;;;;;;;;;;5058004;28;20025;-76
2022/02/24 01:25:59;;;;;;;5.20;2.28;;;;;;;;;;5054627;28;20025;-76
2022/02/24 01:28:25;;;;;;;8.98;2.70;;;;;;;;;;5069360;28;20021;-76
2022/02/24 01:30:51;;;;;;;5.05;2.17;;;;;;;;;;5055450;28;20025;-77
2022/02/24 01:33:17;;;;;;;5.75;2.40;;;;;;;;;;5054499;28;20060;-76
2022/02/24 01:35:43;;;;;;;6.82;2.22;;;;;;;;;;5054661;28;20033;-76
2022/02/24 01:38:09;;;;;;;10.60;3.65;;;;;;;;;;5056464;28;20040;-76
2022/02/24 01:40:35;;;;;;;3.47;1.90;;;;;;;;;;5055844;28;20043;-77
2022/02/24 01:43:02;;;;;;;6.30;2.60;;;;;;;;;;5066139;28;20410;-77
2022/02/24 01:45:28;;;;;;;7.55;2.28;;;;;;;;;;5056663;28;20029;-76
2022/02/24 01:47:58;;;;;;;9.98;3.03;;;;;;;;;;5066590;28;20037;-76
2022/02/24 01:50:25;;;;;;;7.13;3.08;;;;;;;;;;5058849;28;20451;-76
2022/02/24 01:52:52;;;;;;;8.35;2.53;;;;;;;;;;5046844;28;20052;-76
2022/02/24 01:55:18;;;;;;;7.43;2.60;;;;;;;;;;5049746;28;20074;-76
2022/02/24 01:57:44;;;;;;;7.95;2.70;;;;;;;;;;5052912;28;20036;-76
2022/02/24 02:00:10;;;;;;;5.00;2.58;;;;;;;;;;5055261;28;20108;-76
2022/02/24 02:02:36;;;;;;;11.32;3.08;;;;;;;;;;5067225;28;21098;-77
2022/02/24 02:05:04;;;;;;;6.28;2.70;;;;;;;;;;5048198;28;20164;-76
2022/02/24 02:07:30;;;;;;;11.77;2.67;;;;;;;;;;5050170;28;20119;-75
2022/02/24 02:09:56;;;;;;;8.02;2.95;;;;;;;;;;5054916;28;20075;-76
2022/02/24 02:12:22;;;;;;;5.80;3.10;;;;;;;;;;5047460;28;20104;-77
2022/02/24 02:14:49;;;;;;;5.68;2.40;;;;;;;;;;5053152;28;20021;-77
2022/02/24 02:17:15;;;;;;;9.18;2.80;;;;;;;;;;5052163;28;20025;-75
2022/02/24 02:19:41;;;;;;;6.30;2.30;;;;;;;;;;5070970;28;20028;-76
2022/02/24 02:22:07;;;;;;;7.03;2.30;;;;;;;;;;5051738;28;20024;-77
2022/02/24 02:24:33;;;;;;;8.40;2.63;;;;;;;;;;5052926;28;20025;-76
2022/02/24 02:26:59;;;;;;;9.25;2.90;;;;;;;;;;5048852;28;20034;-76
2022/02/24 02:29:25;;;;;;;9.68;2.55;;;;;;;;;;5054088;28;20040;-76
2022/02/24 02:31:51;;;;;;;13.80;2.80;;;;;;;;;;5055844;28;20086;-76
2022/02/24 02:34:18;;;;;;;8.77;2.55;;;;;;;;;;5068535;28;20035;-76
2022/02/24 02:36:45;;;;;;;9.23;3.20;;;;;;;;;;5054177;28;20089;-76
2022/02/24 02:39:12;;;;;;;6.60;2.33;;;;;;;;;;5058002;28;20031;-77
2022/02/24 02:41:39;;;;;;;10.98;2.70;;;;;;;;;;5053150;28;20040;-75
2022/02/24 02:44:06;;;;;;;5.35;2.30;;;;;;;;;;5048044;28;20024;-76
2022/02/24 02:46:32;;;;;;;7.45;3.08;;;;;;;;;;5078023;28;20067;-74
2022/02/24 02:48:58;;;;;;;7.03;3.10;;;;;;;;;;5051979;28;20078;-76
2022/02/24 02:51:25;;;;;;;6.82;2.13;;;;;;;;;;5073825;28;20028;-75
2022/02/24 02:53:51;;;;;;;8.35;2.60;;;;;;;;;;5054348;28;20085;-76
2022/02/24 02:56:17;;;;;;;4.45;2.10;;;;;;;;;;5048641;28;20479;-75
2022/02/24 02:58:43;;;;;;;5.20;2.53;;;;;;;;;;5051554;28;20040;-76
2022/02/24 03:01:09;;;;;;;8.10;2.22;;;;;;;;;;5051563;28;20500;-76
2022/02/24 03:03:36;;;;;;;4.55;2.33;;;;;;;;;;5051935;28;20111;-75
2022/02/24 03:06:02;;;;;;;7.55;2.28;;;;;;;;;;5051432;28;20032;-76
2022/02/24 03:08:28;;;;;;;4.28;2.47;;;;;;;;;;5050581;28;20025;-76
2022/02/24 03:10:54;;;;;;;5.78;2.47;;;;;;;;;;5050631;28;20114;-76
2022/02/24 03:13:20;;;;;;;9.30;2.70;;;;;;;;;;5049713;28;20036;-75
2022/02/24 03:15:47;;;;;;;8.90;2.88;;;;;;;;;;5044944;28;20028;-75
2022/02/24 03:18:13;;;;;;;4.50;2.30;;;;;;;;;;5054041;28;20032;-76
2022/02/24 03:20:39;;;;;;;12.10;2.70;;;;;;;;;;5055944;28;20378;-75
2022/02/24 03:23:08;;;;;;;5.90;2.85;;;;;;;;;;5050021;28;20033;-75
2022/02/24 03:25:34;;;;;;;5.45;2.63;;;;;;;;;;5050811;28;20024;-75
2022/02/24 03:28:00;;;;;;;9.18;2.33;;;;;;;;;;5052907;28;20426;-74
2022/02/24 03:30:27;;;;;;;9.15;2.53;;;;;;;;;;5045672;28;20554;-76
2022/02/24 03:32:53;;;;;;;5.65;2.30;;;;;;;;;;5065578;28;20570;-75
2022/02/24 03:35:20;;;;;;;7.70;2.85;;;;;;;;;;5047177;28;20042;-75
2022/02/24 03:37:46;;;;;;;8.27;2.33;;;;;;;;;;5047894;28;20048;-75
2022/02/24 03:40:13;;;;;;;9.65;2.40;;;;;;;;;;5050302;28;20027;-76
2022/02/24 03:42:39;;;;;;;5.28;1.95;;;;;;;;;;5058424;28;20024;-75
2022/02/24 03:45:06;;;;;;;3.13;2.10;;;;;;;;;;5050240;28;20048;-75
2022/02/24 03:47:32;;;;;;;4.20;2.42;;;;;;;;;;5052671;28;20037;-75
2022/02/24 03:49:58;;;;;;;9.63;2.17;;;;;;;;;;5053435;28;20707;-76
2022/02/24 03:52:24;;;;;;;4.45;2.20;;;;;;;;;;5050669;28;20025;-75
2022/02/24 03:54:51;;;;;;;12.43;2.88;;;;;;;;;;5049694;28;20495;-75
2022/02/24 03:57:17;;;;;;;6.03;1.83;;;;;;;;;;5051076;28;20884;-73
2022/02/24 03:59:44;;;;;;;8.65;2.30;;;;;;;;;;5051016;28;20056;-77
2022/02/24 04:02:10;;;;;;;3.80;1.83;;;;;;;;;;5051635;28;20037;-75
2022/02/24 04:04:36;;;;;;;7.88;2.63;;;;;;;;;;5049735;28;20590;-75
2022/02/24 04:07:03;;;;;;;6.43;2.45;;;;;;;;;;5050560;28;20223;-76
2022/02/24 04:09:29;;;;;;;5.72;1.95;;;;;;;;;;5056323;28;20107;-77
2022/02/24 04:11:56;;;;;;;3.45;1.77;;;;;;;;;;5052273;28;20100;-76
2022/02/24 04:14:22;;;;;;;2.83;2.00;;;;;;;;;;5049361;28;20021;-76
2022/02/24 04:16:48;;;;;;;5.45;1.90;;;;;;;;;;5048191;28;20029;-75
2022/02/24 04:19:14;;;;;;;5.85;2.40;;;;;;;;;;5051475;28;20027;-76
2022/02/24 04:21:41;;;;;;;7.80;1.75;;;;;;;;;;5057074;28;20113;-76
2022/02/24 04:24:07;;;;;;;4.22;1.63;;;;;;;;;;5047133;28;20568;-76
2022/02/24 04:26:33;;;;;;;4.72;2.47;;;;;;;;;;5052535;28;20032;-76
2022/02/24 04:29:00;;;;;;;6.38;2.30;;;;;;;;;;5054276;28;21372;-76
2022/02/24 04:31:26;;;;;;;3.75;1.60;;;;;;;;;;5043986;28;20029;-76
2022/02/24 04:33:52;;;;;;;5.97;1.98;;;;;;;;;;5047893;28;20052;-76
2022/02/24 04:36:18;;;;;;;4.18;1.70;;;;;;;;;;5063618;28;20048;-76
2022/02/24 04:38:44;;;;;;;3.85;2.20;;;;;;;;;;5071231;28;20033;-76
2022/02/24 04:41:10;;;;;;;5.57;2.83;;;;;;;;;;5052768;28;20078;-76
2022/02/24 04:43:37;;;;;;;2.50;1.52;;;;;;;;;;5052501;28;20698;-75
2022/02/24 04:46:03;;;;;;;6.65;2.05;;;;;;;;;;5046695;28;20025;-75
2022/02/24 04:48:30;;;;;;;2.92;1.25;;;;;;;;;;5051018;28;20107;-76
2022/02/24 04:50:56;;;;;;;3.25;1.55;;;;;;;;;;5052477;28;20044;-76
2022/02/24 04:53:22;;;;;;;4.60;1.65;;;;;;;;;;5056088;28;20391;-76
2022/02/24 04:55:48;;;;;;;3.95;1.52;;;;;;;;;;5048468;28;20373;-75
2022/02/24 04:58:21;;;;;;;2.03;1.30;;;;;;;;;;5065767;28;20024;-75
2022/02/24 05:00:48;;;;;;;3.10;1.50;;;;;;;;;;5065767;28;20037;-76
2022/02/24 05:03:15;;;;;;;2.22;1.83;;;;;;;;;;5048853;28;20036;-76
2022/02/24 05:05:43;;;;;;;3.15;1.50;;;;;;;;;;5047129;28;20082;-75
2022/02/24 05:08:09;;;;;;;4.72;1.50;;;;;;;;;;5076799;28;20109;-76
2022/02/24 05:10:35;;;;;;;2.72;1.42;;;;;;;;;;5050610;28;20045;-75
2022/02/24 05:13:01;;;;;;;1.58;1.48;;;;;;;;;;5063082;28;20124;-76
2022/02/24 05:15:27;;;;;;;1.65;1.40;;;;;;;;;;5048821;28;20433;-75
2022/02/24 05:17:53;;;;;;;2.30;1.63;;;;;;;;;;5065083;28;20021;-76
2022/02/24 05:20:20;;;;;;;2.35;1.42;;;;;;;;;;5054631;28;20032;-76
2022/02/24 05:22:46;;;;;;;1.60;1.50;;;;;;;;;;5052205;28;20078;-75
2022/02/24 05:25:14;;;;;;;2.28;1.25;;;;;;;;;;5050175;28;20495;-75
2022/02/24 05:27:43;;;;;;;1.70;1.60;;;;;;;;;;5048442;28;20045;-75
2022/02/24 05:30:11;;;;;;;2.80;1.30;;;;;;;;;;5070614;28;20775;-76
2022/02/24 05:32:37;;;;;;;1.83;1.73;;;;;;;;;;5048692;28;20112;-75
2022/02/24 05:35:03;;;;;;;5.88;1.50;;;;;;;;;;5050889;28;20029;-76
2022/02/24 05:37:29;;;;;;;1.92;1.50;;;;;;;;;;5051406;28;20029;-76
2022/02/24 05:39:56;;;;;;;1.63;1.30;;;;;;;;;;5048239;28;20028;-76
2022/02/24 05:42:22;;;;;;;2.55;1.48;;;;;;;;;;5051411;28;20104;-75
2022/02/24 05:44:49;;;;;;;5.05;2.22;;;;;;;;;;5046977;28;20044;-77
2022/02/24 05:47:15;;;;;;;2.58;1.60;;;;;;;;;;5064125;28;20032;-76
2022/02/24 05:49:41;;;;;;;1.40;1.30;;;;;;;;;;5054346;28;20061;-77
2022/02/24 05:52:08;;;;;;;2.25;1.25;;;;;;;;;;5055070;28;20428;-76
2022/02/24 05:54:34;;;;;;;1.27;1.17;;;;;;;;;;5055544;28;20025;-76
2022/02/24 05:57:00;;;;;;;1.20;1.15;;;;;;;;;;5053024;28;20032;-75
2022/02/24 05:59:26;;;;;;;1.40;1.30;;;;;;;;;;5066057;28;20057;-75
2022/02/24 06:01:52;;;;;;;1.13;1.13;;;;;;;;;;5047903;28;20033;-76
2022/02/24 06:04:19;;;;;;;1.45;1.35;;;;;;;;;;5051910;28;20025;-75
2022/02/24 06:06:45;;;;;;;1.30;1.20;;;;;;;;;;5056131;28;20036;-76
2022/02/24 06:09:12;;;;;;;1.45;1.33;;;;;;;;;;5055705;28;20116;-76
2022/02/24 06:11:38;;;;;;;2.00;1.35;;;;;;;;;;5048952;28;21426;-75
2022/02/24 06:14:04;;;;;;;1.17;1.10;;;;;;;;;;5052418;28;20497;-75
2022/02/24 06:16:33;;;;;;;1.92;1.75;;;;;;;;;;5051420;28;20675;-76
2022/02/24 06:18:59;;;;;;;2.67;1.70;;;;;;;;;;5058419;28;20119;-76
2022/02/24 06:21:25;;;;;;;3.50;1.60;;;;;;;;;;5060480;28;20060;-75
2022/02/24 06:23:51;;;;;;;1.30;1.17;;;;;;;;;;5069650;28;20033;-76
2022/02/24 06:26:18;;;;;;;1.48;1.27;;;;;;;;;;5062067;28;20035;-77
2022/02/24 06:28:44;;;;;;;0.93;0.93;;;;;;;;;;5053429;28;20029;-76
2022/02/24 06:31:10;;;;;;;2.28;1.45;;;;;;;;;;5058560;28;20125;-76
2022/02/24 06:33:36;;;;;;;1.88;1.67;;;;;;;;;;5049767;28;20025;-76
2022/02/24 06:36:02;;;;;;;1.40;1.30;;;;;;;;;;5053676;28;20040;-76
2022/02/24 06:38:28;;;;;;;1.50;1.40;;;;;;;;;;5052970;28;20025;-76
2022/02/24 06:40:55;;;;;;;1.30;1.30;;;;;;;;;;5055037;28;20029;-77
2022/02/24 06:43:21;;;;;;;1.52;1.42;;;;;;;;;;5053258;28;20033;-75
2022/02/24 06:45:47;;;;;;;1.33;1.23;;;;;;;;;;5051327;28;20032;-77
2022/02/24 06:48:13;;;;;;;1.83;1.27;;;;;;;;;;5050570;28;20032;-76
2022/02/24 06:50:39;;;;;;;1.45;1.35;;;;;;;;;;5052591;28;20158;-77
2022/02/24 06:53:05;;;;;;;1.40;1.23;;;;;;;;;;5057598;28;20535;-75
2022/02/24 06:55:32;;;;;;;2.15;1.58;;;;;;;;;;5052241;28;20471;-76
2022/02/24 06:57:59;;;;;;;2.17;1.60;;;;;;;;;;5052938;28;20020;-76
2022/02/24 07:00:25;;;;;;;1.55;1.40;;;;;;;;;;5076089;28;20031;-77
2022/02/24 07:02:53;;;;;;;2.47;1.45;;;;;;;;;;5073577;28;20107;-76
2022/02/24 07:05:19;;;;;;;1.80;1.30;;;;;;;;;;5045316;28;20045;-75
2022/02/24 07:07:45;;;;;;;1.48;1.30;;;;;;;;;;5052813;28;20033;-76
2022/02/24 07:10:12;;;;;;;3.22;1.70;;;;;;;;;;5055089;28;20037;-76
2022/02/24 07:12:39;;;;;;;3.40;1.85;;;;;;;;;;5052173;28;20072;-75
2022/02/24 07:15:05;;;;;;;1.40;1.30;;;;;;;;;;5050761;28;20024;-76
2022/02/24 07:17:32;;;;;;;1.42;1.35;;;;;;;;;;5047674;28;20098;-76
2022/02/24 07:19:58;;;;;;;2.95;1.50;;;;;;;;;;5065039;28;20025;-76
2022/02/24 07:22:25;;;;;;;1.27;1.27;;;;;;;;;;5048637;28;20025;-75
2022/02/24 07:24:51;;;;;;;1.30;1.20;;;;;;;;;;5047729;28;20493;-75
2022/02/24 07:27:17;;;;;;;4.65;1.42;;;;;;;;;;5049411;28;20672;-75
2022/02/24 07:29:43;;;;;;;3.70;1.38;;;;;;;;;;5050275;28;20032;-75
2022/02/24 07:32:10;;;;;;;2.30;2.03;;;;;;;;;;5046425;28;20032;-76
2022/02/24 07:34:36;;;;;;;1.60;1.50;;;;;;;;;;5049048;28;20043;-76
2022/02/24 07:37:02;;;;;;;4.00;1.50;;;;;;;;;;5049451;28;20041;-76
2022/02/24 07:39:28;;;;;;;3.05;1.85;;;;;;;;;;5059270;28;20139;-76
2022/02/24 07:41:54;;;;;;;1.75;1.50;;;;;;;;;;5050509;28;21034;-75
2022/02/24 07:44:21;;;;;;;2.25;1.60;;;;;;;;;;5053805;28;20036;-76
2022/02/24 07:46:47;;;;;;;2.75;1.77;;;;;;;;;;5046128;28;20029;-76
2022/02/24 07:49:13;;;;;;;2.60;1.70;;;;;;;;;;5049552;28;20039;-75
2022/02/24 07:51:39;;;;;;;2.42;1.60;;;;;;;;;;5047880;28;20043;-75
2022/02/24 07:54:05;;;;;;;2.95;1.98;;;;;;;;;;5050458;28;20047;-76
2022/02/24 07:56:31;;;;;;;2.95;1.77;;;;;;;;;;5050567;28;20037;-75
2022/02/24 07:58:58;;;;;;;2.95;1.70;;;;;;;;;;5055524;28;20082;-78
2022/02/24 08:01:24;;;;;;;2.38;1.60;;;;;;;;;;5039084;28;20064;-76
2022/02/24 08:03:51;;;;;;;3.10;1.65;;;;;;;;;;5043477;28;20025;-76
2022/02/24 08:06:17;;;;;;;3.08;1.90;;;;;;;;;;5046795;28;20049;-76
2022/02/24 08:08:43;;;;;;;2.70;1.42;;;;;;;;;;5042457;28;20037;-76
2022/02/24 08:11:09;;;;;;;2.30;1.70;;;;;;;;;;5042835;28;20053;-78
2022/02/24 08:13:36;;;;;;;2.35;1.52;;;;;;;;;;5042465;28;20033;-78
2022/02/24 08:16:02;;;;;;;4.85;2.05;;;;;;;;;;5044032;28;20548;-78
2022/02/24 08:18:28;;;;;;;4.45;2.17;;;;;;;;;;5042947;28;20399;-78
2022/02/24 08:20:54;;;;;;;3.55;1.80;;;;;;;;;;5042154;28;20091;-78
2022/02/24 08:23:20;;;;;;;2.03;1.60;;;;;;;;;;5041535;28;20042;-78
2022/02/24 08:25:46;;;;;;;2.08;1.88;;;;;;;;;;5044498;28;20040;-76
2022/02/24 08:28:12;;;;;;;4.05;1.65;;;;;;;;;;5042946;28;20036;-78
2022/02/24 08:30:39;;;;;;;3.80;1.85;;;;;;;;;;5041074;28;20032;-76
2022/02/24 08:33:05;;;;;;;1.88;1.48;;;;;;;;;;5043898;28;20490;-79
2022/02/24 08:35:32;;;;;;;3.40;1.73;;;;;;;;;;5055183;28;20057;-77
2022/02/24 08:37:58;;;;;;;2.85;1.73;;;;;;;;;;5042707;28;20031;-79
2022/02/24 08:40:24;;;;;;;4.50;1.98;;;;;;;;;;5062975;28;20033;-79
2022/02/24 08:42:51;;;;;;;2.63;1.73;;;;;;;;;;5049522;28;20036;-80
2022/02/24 08:45:21;;;;;;;5.18;1.98;;;;;;;;;;5062150;28;20051;-78
2022/02/24 08:47:47;;;;;;;2.60;1.80;;;;;;;;;;5045340;28;20056;-79
2022/02/24 08:50:14;;;;;;;4.70;1.63;;;;;;;;;;5045111;28;20108;-76
2022/02/24 08:52:40;;;;;;;2.40;2.08;;;;;;;;;;5042941;28;20447;-76
2022/02/24 08:55:06;;;;;;;3.15;2.17;;;;;;;;;;5041580;28;20017;-76
2022/02/24 08:57:33;;;;;;;2.03;1.75;;;;;;;;;;5040461;28;20021;-76
2022/02/24 08:59:59;;;;;;;3.92;2.25;;;;;;;;;;5038240;28;20029;-75
2022/02/24 09:02:25;;;;;;;2.55;1.92;;;;;;;;;;5041621;28;20036;-76
2022/02/24 09:04:51;;;;;;;3.10;2.00;;;;;;;;;;5040677;28;20025;-76
2022/02/24 09:07:17;;;;;;;5.50;2.30;;;;;;;;;;5039589;28;20036;-77
2022/02/24 09:09:43;;;;;;;2.80;2.05;;;;;;;;;;5042179;28;20056;-77
2022/02/24 09:12:10;;;;;;;2.58;1.92;;;;;;;;;;5042353;28;20052;-75
2022/02/24 09:14:36;;;;;;;2.85;1.90;;;;;;;;;;5040335;28;20025;-78
2022/02/24 09:17:03;;;;;;;2.92;1.60;;;;;;;;;;5040641;28;20025;-78
2022/02/24 09:19:29;;;;;;;1.95;1.50;;;;;;;;;;5040789;28;20032;-78
2022/02/24 09:21:55;;;;;;;2.30;1.83;;;;;;;;;;5042747;28;20021;-76
2022/02/24 09:24:22;;;;;;;1.65;1.50;;;;;;;;;;5040858;28;20175;-77
2022/02/24 09:26:48;;;;;;;1.75;1.60;;;;;;;;;;5042847;28;20057;-77
2022/02/24 09:29:14;;;;;;;2.17;1.55;;;;;;;;;;5044499;28;20154;-76
2022/02/24 09:31:41;;;;;;;1.80;1.70;;;;;;;;;;5042135;28;20325;-76
2022/02/24 09:34:07;;;;;;;1.60;1.50;;;;;;;;;;5046211;28;20033;-76
2022/02/24 09:36:33;;;;;;;2.70;2.17;;;;;;;;;;5059903;28;20060;-76
2022/02/24 09:39:00;;;;;;;1.65;1.55;;;;;;;;;;5042380;28;20043;-78
2022/02/24 09:41:26;;;;;;;1.48;1.30;;;;;;;;;;5044745;28;20074;-79
2022/02/24 09:43:53;;;;;;;2.42;1.80;;;;;;;;;;5056976;28;20029;-76
2022/02/24 09:46:20;;;;;;;2.88;1.98;;;;;;;;;;5045632;28;20021;-77
2022/02/24 09:48:46;;;;;;;3.63;1.90;;;;;;;;;;5044122;28;20032;-77
2022/02/24 09:51:17;;;;;;;3.10;2.15;;;;;;;;;;5044129;28;20036;-79
2022/02/24 09:53:44;;;;;;;2.00;1.80;;;;;;;;;;5066145;28;20047;-79
2022/02/24 09:56:17;;;;;;;5.28;1.83;;;;;;;;;;5053302;28;20017;-79
2022/02/24 09:58:43;;;;;;;2.58;1.60;;;;;;;;;;5046105;28;20031;-78
2022/02/24 10:01:12;;;;;;;1.95;1.75;;;;;;;;;;5063234;28;20382;-77
2022/02/24 10:03:44;;;;;;;2.45;1.63;;;;;;;;;;5047579;28;20112;-77
2022/02/24 10:06:10;;;;;;;2.72;2.03;;;;;;;;;;5044871;28;20040;-76
2022/02/24 10:08:39;;;;;;;2.53;1.90;;;;;;;;;;5045757;28;20028;-78
2022/02/24 10:11:16;;;;;;;1.70;1.55;;;;;;;;;;5044416;28;20533;-78
2022/02/24 10:13:55;;;;;;;2.78;2.20;;;;;;;;;;5057772;28;20122;-76
2022/02/24 10:16:21;;;;;;;3.20;1.63;;;;;;;;;;5040753;28;20409;-76
2022/02/24 10:18:47;;;;;;;2.63;2.13;;;;;;;;;;5043852;28;20032;-76
2022/02/24 10:21:17;;;;;;;3.00;2.30;;;;;;;;;;5045832;28;20036;-76
2022/02/24 10:23:44;;;;;;;7.53;2.88;;;;;;;;;;5041910;28;20033;-74
2022/02/24 10:26:12;;;;;;;4.30;2.10;;;;;;;;;;5056258;28;20029;-75
2022/02/24 10:28:42;;;;;;;3.17;2.10;;;;;;;;;;5043322;28;20039;-77
2022/02/24 10:31:08;;;;;;;4.57;1.90;;;;;;;;;;5043818;28;20112;-78
2022/02/24 10:33:34;;;;;;;4.43;1.70;;;;;;;;;;5040870;28;21884;-76
2022/02/24 10:36:14;;;;;;;2.78;1.70;;;;;;;;;;5058881;28;20573;-77
2022/02/24 10:38:41;;;;;;;6.07;2.08;;;;;;;;;;5040432;28;20410;-77
2022/02/24 10:41:08;;;;;;;3.58;1.80;;;;;;;;;;5045399;28;20097;-76
2022/02/24 10:43:36;;;;;;;5.13;2.67;;;;;;;;;;5042526;28;20033;-77
2022/02/24 10:46:06;;;;;;;3.90;2.05;;;;;;;;;;5042846;28;20024;-77
2022/02/24 10:48:47;;;;;;;4.65;2.17;;;;;;;;;;5043407;28;20120;-77
2022/02/24 10:51:13;;;;;;;3.45;1.70;;;;;;;;;;5057966;28;20036;-76
2022/02/24 10:53:39;;;;;;;4.38;1.77;;;;;;;;;;5039953;28;20029;-76
2022/02/24 10:56:09;;;;;;;3.10;1.90;;;;;;;;;;5041325;28;20090;-77
2022/02/24 10:58:35;;;;;;;3.25;1.85;;;;;;;;;;5042664;28;20035;-77
2022/02/24 11:01:06;;;;;;;3.22;1.85;;;;;;;;;;5042267;28;20087;-78
2022/02/24 11:03:33;;;;;;;4.15;2.03;;;;;;;;;;5057891;28;20033;-78
2022/02/24 11:05:59;;;;;;;4.38;2.25;;;;;;;;;;5074785;28;20106;-77
2022/02/24 11:08:27;;;;;;;3.38;1.90;;;;;;;;;;5044395;28;20059;-79
2022/02/24 11:10:55;;;;;;;2.55;1.90;;;;;;;;;;5047340;28;20049;-77
2022/02/24 11:13:21;;;;;;;2.88;1.77;;;;;;;;;;5044544;28;20033;-77
2022/02/24 11:15:48;;;;;;;2.97;2.63;;;;;;;;;;5040439;28;20029;-77
2022/02/24 11:18:15;;;;;;;3.15;2.03;;;;;;;;;;5044289;28;20027;-77
2022/02/24 11:20:41;;;;;;;3.63;1.65;;;;;;;;;;5043236;28;20021;-78
2022/02/24 11:23:07;;;;;;;2.78;1.65;;;;;;;;;;5044173;28;20025;-76
2022/02/24 11:25:36;;;;;;;3.28;1.80;;;;;;;;;;5043780;28;21774;-77
2022/02/24 11:28:03;;;;;;;1.55;1.45;;;;;;;;;;5061463;28;20033;-77
2022/02/24 11:30:32;;;;;;;5.45;2.00;;;;;;;;;;5044279;28;21394;-78
2022/02/24 11:32:58;;;;;;;2.65;1.67;;;;;;;;;;5041826;28;20079;-78
2022/02/24 11:35:25;;;;;;;2.13;1.67;;;;;;;;;;5040825;28;20028;-78
2022/02/24 11:38:10;;;;;;;4.43;1.75;;;;;;;;;;5044557;28;20100;-77
2022/02/24 11:40:40;;;;;;;2.53;1.73;;;;;;;;;;5057448;28;20036;-78
2022/02/24 11:43:07;;;;;;;6.03;2.00;;;;;;;;;;5057371;28;20060;-76
2022/02/24 11:45:35;;;;;;;3.92;1.65;;;;;;;;;;5055800;28;20029;-78
2022/02/24 11:48:03;;;;;;;4.28;2.00;;;;;;;;;;5039994;28;20029;-78
2022/02/24 11:50:35;;;;;;;2.90;1.90;;;;;;;;;;5043374;28;20040;-78
2022/02/24 11:53:01;;;;;;;8.25;2.10;;;;;;;;;;5041854;28;20119;-76
2022/02/24 11:55:42;;;;;;;5.63;2.20;;;;;;;;;;5043942;28;20453;-78
2022/02/24 11:58:27;;;;;;;4.60;3.05;;;;;;;;;;5043633;28;20025;-77
2022/02/24 12:01:17;;;;;;;2.57;2.00;;;;;;;;;;5057472;28;20467;-77
2022/02/24 12:03:46;;;;;;;4.05;2.00;;;;;;;;;;5042315;28;20072;-77
2022/02/24 12:06:13;;;;;;;6.25;1.92;;;;;;;;;;5056276;28;20032;-76
2022/02/24 12:08:57;;;;;;;3.72;2.08;;;;;;;;;;5043394;28;20128;-77
2022/02/24 12:11:28;;;;;;;4.68;2.10;;;;;;;;;;5042476;28;20392;-75
2022/02/24 12:13:55;;;;;;;8.75;2.20;;;;;;;;;;5044696;28;20139;-79
2022/02/24 12:16:24;;;;;;;7.75;2.70;;;;;;;;;;5045769;28;20112;-75
2022/02/24 12:18:51;;;;;;;5.75;2.33;;;;;;;;;;5043769;28;20105;-75
2022/02/24 12:21:26;;;;;;;4.38;2.28;;;;;;;;;;5041362;28;20021;-76
2022/02/24 12:23:54;;;;;;;7.30;2.80;;;;;;;;;;5044186;28;20116;-78
2022/02/24 12:26:36;;;;;;;5.05;2.08;;;;;;;;;;5041663;28;20032;-78
2022/02/24 12:29:37;;;;;;;6.35;2.33;;;;;;;;;;5047463;28;20032;-78
2022/02/24 12:32:04;;;;;;;3.58;2.05;;;;;;;;;;5042932;28;20102;-77
2022/02/24 12:34:30;;;;;;;5.50;2.13;;;;;;;;;;5043459;28;20033;-77
2022/02/24 12:37:10;;;;;;;6.22;2.20;;;;;;;;;;5042967;28;20116;-77
2022/02/24 12:39:37;;;;;;;7.28;2.45;;;;;;;;;;5045634;28;20043;-77
2022/02/24 12:42:08;;;;;;;6.10;2.95;;;;;;;;;;5039984;28;20028;-77
2022/02/24 12:44:36;;;;;;;2.88;2.58;;;;;;;;;;5044246;28;20056;-76
2022/02/24 12:47:03;;;;;;;4.20;2.33;;;;;;;;;;5042779;28;20029;-76
2022/02/24 12:49:45;;;;;;;7.85;2.50;;;;;;;;;;5043084;28;20029;-78
2022/02/24 12:52:16;;;;;;;8.18;2.55;;;;;;;;;;5048340;28;20035;-76
2022/02/24 12:54:43;;;;;;;4.32;2.25;;;;;;;;;;5046904;28;20033;-77
2022/02/24 12:57:09;;;;;;;5.10;2.33;;;;;;;;;;5044886;28;20032;-76
2022/02/24 12:59:36;;;;;;;5.35;2.47;;;;;;;;;;5046964;28;20029;-77
2022/02/24 13:02:02;;;;;;;6.57;2.20;;;;;;;;;;5044004;28;20410;-76
2022/02/24 13:04:28;;;;;;;4.20;2.38;;;;;;;;;;5048976;28;20036;-77
2022/02/24 13:06:55;;;;;;;7.95;2.08;;;;;;;;;;5047088;28;20031;-75
2022/02/24 13:12:07;;;;;;;6.60;2.60;;;;;;;;;;5045652;28;20047;-77
2022/02/24 13:14:35;;;;;;;3.88;2.47;;;;;;;;;;5042949;28;20029;-76
2022/02/24 13:17:01;;;;;;;5.30;2.47;;;;;;;;;;5045562;28;20509;-78
2022/02/24 13:19:27;;;;;;;5.68;2.50;;;;;;;;;;5045378;28;20028;-77
2022/02/24 13:21:57;;;;;;;7.00;2.10;;;;;;;;;;5044606;28;20517;-78
2022/02/24 13:24:27;;;;;;;4.85;2.22;;;;;;;;;;5058061;28;20029;-77
2022/02/24 13:26:54;;;;;;;3.47;2.25;;;;;;;;;;5048453;28;20052;-76
2022/02/24 13:29:21;;;;;;;6.50;2.67;;;;;;;;;;5043488;28;20029;-76
2022/02/24 13:31:51;;;;;;;6.50;2.30;;;;;;;;;;5056710;28;20043;-75
2022/02/24 13:34:19;;;;;;;9.02;3.50;;;;;;;;;;5046801;28;20612;-76
2022/02/24 13:36:46;;;;;;;6.32;2.42;;;;;;;;;;5048799;28;20032;-77
2022/02/24 13:39:31;;;;;;;6.63;2.17;;;;;;;;;;5048677;28;20095;-76
2022/02/24 13:41:59;;;;;;;4.63;2.08;;;;;;;;;;5043207;28;20079;-77
2022/02/24 13:44:26;;;;;;;5.47;2.90;;;;;;;;;;5061735;28;20688;-77
2022/02/24 13:47:02;;;;;;;5.25;2.75;;;;;;;;;;5047993;28;20410;-78
2022/02/24 13:49:40;;;;;;;5.07;2.75;;;;;;;;;;5048175;28;20102;-77
2022/02/24 13:52:06;;;;;;;6.93;2.63;;;;;;;;;;5047625;28;20123;-76
2022/02/24 13:54:33;;;;;;;6.30;2.85;;;;;;;;;;5047867;28;20533;-78
2022/02/24 13:56:59;;;;;;;11.07;2.60;;;;;;;;;;5051424;28;20051;-78
2022/02/24 13:59:30;;;;;;;3.17;2.15;;;;;;;;;;5052605;28;20364;-78
2022/02/24 14:01:57;;;;;;;6.40;2.20;;;;;;;;;;5045287;28;20071;-78
2022/02/24 14:04:24;;;;;;;7.88;2.65;;;;;;;;;;5062918;28;20029;-77
2022/02/24 14:06:50;;;;;;;5.45;2.63;;;;;;;;;;5040839;28;20407;-78
2022/02/24 14:09:18;;;;;;;4.38;2.42;;;;;;;;;;5043612;28;20048;-78
2022/02/24 14:11:44;;;;;;;5.95;2.80;;;;;;;;;;5044210;28;20126;-78
2022/02/24 14:14:11;;;;;;;8.30;3.08;;;;;;;;;;5042800;28;20033;-76
2022/02/24 14:16:37;;;;;;;4.57;3.13;;;;;;;;;;5044619;28;20026;-76
2022/02/24 14:19:04;;;;;;;7.57;3.00;;;;;;;;;;5045081;28;20029;-76
2022/02/24 14:21:30;;;;;;;7.93;2.72;;;;;;;;;;5063026;28;20029;-77
2022/02/24 14:23:56;;;;;;;9.95;3.38;;;;;;;;;;5047520;28;20025;-77
2022/02/24 14:26:23;;;;;;;10.07;4.63;;;;;;;;;;5043028;28;20027;-75
2022/02/24 14:28:50;;;;;;;11.20;5.30;;;;;;;;;;5041366;28;20029;-76
2022/02/24 14:31:18;;;;;;;7.68;3.65;;;;;;;;;;5076519;28;20037;-74
2022/02/24 14:33:44;;;;;;;6.10;4.15;;;;;;;;;;5046440;28;20035;-73
2022/02/24 14:36:11;;;;;;;12.45;7.50;;;;;;;;;;5047859;28;20036;-76
2022/02/24 14:38:38;;;;;;;21.65;16.60;;;;;;;;;;5045666;28;20139;-75
2022/02/24 14:41:04;;;;;;;7.47;3.42;;;;;;;;;;5046845;28;20807;-74
2022/02/24 14:43:31;;;;;;;13.65;6.65;;;;;;;;;;5042796;28;20059;-74
2022/02/24 14:45:58;;;;;;;8.68;4.60;;;;;;;;;;5045242;28;20028;-74